Dunnegan, MO (65640)

11:38 PM CST on December 17, 2014 (GMT -0600)
APRSWXNET Humansville MO US | Change Station
CLOSE
Current Station
Personal Weather Station
Location: Dunnegan, MO
Elevation: 964 ft
Nearby Weather Stations
Active Advisory: Winter Weather Advisory

Elev 964 ft 37.72 °N, 93.49 °W | Updated 38 minutes ago

Overcast
Overcast
32 °F
Feels Like 32 °F
N
0
Wind Variable Wind from ESE
Gusts 1.0 mph

Today
High -- | Low -- °F
--% Chance of Precip.
Yesterday
High -- | Low -- °F
Precip. -- in
7:23 AM 4:57 PM
Waning Crescent, 17% visible
Pressure 30.19 in
Visibility 8.0 miles
Clouds Mostly Cloudy 700 ft
Mostly Cloudy 4600 ft
Overcast 6000 ft
Windchill 32 °F
Dew Point 31 °F
Humidity 97%
Rainfall 0.00 in
Snow Depth Not available.
UV 0 out of 12
Pollen 3.60 out of 12
Air Quality Not available.
Flu Activity Not available.
SPECI KSGF 180516Z 14007KT 8SM BKN007 BKN046 OVC060 01/00 A3019 RMK AO2 RAE0457 P0000 T00110000

More Conditions Fewer Conditions

Pressure 30.19 in
Visibility 8.0 miles
Clouds Mostly Cloudy 700 ft
Mostly Cloudy 4600 ft
Overcast 6000 ft
Windchill 32 °F
Dew Point 31 °F
Humidity 97%
Rainfall 0.00 in
Snow Depth Not available.
UV 0 out of 12
Pollen 3.60 out of 12
Air Quality Not available.
Flu Activity Not available.
SPECI KSGF 180516Z 14007KT 8SM BKN007 BKN046 OVC060 01/00 A3019 RMK AO2 RAE0457 P0000 T00110000

More Conditions Fewer Conditions

10-Day Weather Forecast

Almanac

Astronomy

Dec. 17, 2014 Rise Set
Actual Time
Civil Twilight
Nautical Twilight
Astronomical Twilight
Moon
Length of Visible Light
Length of Day
Tomorrow will be .
, % of the Moon is Illuminated

Today's Extremes

State Highs State Lows

Community

WunderPhotos

Upload Photos

1,778,895 photos uploaded!

WunderBlogs® & News

Nearby

Air Quality

  Air Quality AQ Index Pollutant
Not available.

Snow Depth

Station Depth Elevation

Earthquake Activity

City Distance Mag. Time & Date
Minimum magnitude displayed is 2.5.

Coastal Water Temperatures

Place Temperature

Nearby Weather Stations